createdAt,value
2019-02-17T00:03:13.007Z,23.33
2019-02-17T00:08:17.445Z,22.87
2019-02-17T00:13:21.832Z,23.47
2019-02-17T00:18:26.179Z,21.87
2019-02-17T00:23:30.581Z,23.37
2019-02-17T00:28:48.321Z,25.20
2019-02-17T00:33:57.429Z,25.70
2019-02-17T00:39:01.798Z,24.27
2019-02-17T00:44:07.801Z,24.70
2019-02-17T00:49:12.169Z,25.60
2019-02-17T00:54:16.617Z,26.40
2019-02-17T00:59:20.998Z,24.17
2019-02-17T01:04:25.411Z,26.83
2019-02-17T01:09:30.247Z,26.03
2019-02-17T01:14:34.600Z,25.63
2019-02-17T01:19:38.986Z,26.37
2019-02-17T01:24:43.347Z,26.43
2019-02-17T01:29:47.696Z,26.87
2019-02-17T01:34:52.057Z,25.83
2019-02-17T01:39:56.385Z,28.93
2019-02-17T01:45:00.740Z,27.10
2019-02-17T01:50:07.901Z,28.77
2019-02-17T01:55:12.258Z,27.00
2019-02-17T02:00:16.930Z,28.40
2019-02-17T02:05:21.336Z,27.30
2019-02-17T02:10:25.671Z,27.40
2019-02-17T02:15:30.036Z,28.33
2019-02-17T02:20:34.384Z,27.37
2019-02-17T02:25:38.761Z,27.73
2019-02-17T02:30:43.116Z,26.53
2019-02-17T02:35:47.482Z,26.03
2019-02-17T02:40:51.843Z,25.83
2019-02-17T02:45:56.218Z,25.83
2019-02-17T02:51:00.597Z,25.47
2019-02-17T02:56:05.014Z,26.77
2019-02-17T03:01:10.453Z,25.17
2019-02-17T03:06:16.575Z,25.97
2019-02-17T03:11:20.970Z,25.70
2019-02-17T03:16:25.339Z,24.53
2019-02-17T03:21:29.717Z,25.37
2019-02-17T03:26:34.257Z,25.40
2019-02-17T03:31:38.686Z,24.40
2019-02-17T03:36:43.080Z,24.47
2019-02-17T03:41:47.553Z,25.37
2019-02-17T03:46:51.937Z,26.00
2019-02-17T03:51:56.378Z,25.83
2019-02-17T03:57:00.724Z,26.23
2019-02-17T04:02:05.140Z,25.33
2019-02-17T04:07:09.521Z,25.77
2019-02-17T04:12:14.281Z,25.07
2019-02-17T04:17:18.665Z,26.07
2019-02-17T04:22:23.051Z,27.13
2019-02-17T04:27:27.392Z,26.83
2019-02-17T04:32:31.819Z,27.20
2019-02-17T04:37:36.167Z,26.70
2019-02-17T04:42:40.572Z,27.30
2019-02-17T04:47:44.953Z,26.03
2019-02-17T04:52:49.302Z,26.80
2019-02-17T04:57:53.723Z,27.03
2019-02-17T05:02:58.139Z,26.87
2019-02-17T05:08:02.756Z,27.37
2019-02-17T05:13:07.105Z,26.47
2019-02-17T05:18:11.498Z,26.27
2019-02-17T05:23:15.864Z,25.43
2019-02-17T05:28:20.218Z,25.57
2019-02-17T05:33:24.622Z,26.23
2019-02-17T05:38:28.997Z,26.17
2019-02-17T05:43:33.388Z,23.00
2019-02-17T05:48:37.753Z,24.37
2019-02-17T05:53:42.104Z,26.17
2019-02-17T05:58:46.482Z,26.47
2019-02-17T06:03:50.864Z,25.93
2019-02-17T06:08:55.367Z,24.10
2019-02-17T06:13:59.761Z,26.13
2019-02-17T06:19:04.114Z,25.68
2019-02-17T06:24:08.516Z,25.70
2019-02-17T06:29:12.874Z,26.40
2019-02-17T06:34:17.277Z,26.23
2019-02-17T06:39:21.767Z,26.77
2019-02-17T06:44:26.203Z,25.70
2019-02-17T06:49:30.579Z,25.60
2019-02-17T06:54:34.954Z,22.97
2019-02-17T06:59:39.310Z,25.25
2019-02-17T07:05:01.097Z,26.67
2019-02-17T07:10:06.209Z,27.53
2019-02-17T07:15:12.114Z,26.77
2019-02-17T07:20:18.184Z,26.80
2019-02-17T07:25:29.722Z,25.13
2019-02-17T07:30:28.660Z,27.20
2019-02-17T07:35:33.042Z,25.67
2019-02-17T07:40:37.423Z,28.50
2019-02-17T07:45:41.834Z,27.63
2019-02-17T07:50:46.204Z,29.40
2019-02-17T07:55:50.575Z,28.47
2019-02-17T08:00:54.964Z,30.20
2019-02-17T08:05:59.338Z,29.60
2019-02-17T08:11:04.449Z,32.00
2019-02-17T08:16:08.972Z,29.50
2019-02-17T08:21:13.322Z,32.60
2019-02-17T08:26:17.708Z,30.87
2019-02-17T08:31:22.148Z,29.13
2019-02-17T08:36:26.554Z,29.10
2019-02-17T08:41:30.919Z,28.83
2019-02-17T08:46:35.307Z,29.43
2019-02-17T08:51:40.791Z,30.73
2019-02-17T08:56:45.443Z,31.20
2019-02-17T09:01:49.964Z,30.43
2019-02-17T09:06:54.438Z,31.07
2019-02-17T09:11:58.882Z,30.87
2019-02-17T09:17:03.250Z,31.27
2019-02-17T09:22:07.603Z,30.70
2019-02-17T09:27:12.210Z,29.93
2019-02-17T09:32:16.940Z,28.60
2019-02-17T09:37:21.400Z,31.30
2019-02-17T09:42:26.422Z,29.93
2019-02-17T09:47:30.853Z,51.13
2019-02-17T09:52:35.237Z,29.40
2019-02-17T09:57:39.840Z,29.93
2019-02-17T10:02:44.357Z,29.00
2019-02-17T10:07:51.163Z,27.70
2019-02-17T10:12:54.810Z,28.93
2019-02-17T10:17:59.287Z,27.90
2019-02-17T10:23:03.667Z,27.37
2019-02-17T10:28:08.082Z,27.30
2019-02-17T10:33:12.446Z,26.67
2019-02-17T10:38:16.858Z,27.23
2019-02-17T10:43:21.239Z,25.67
2019-02-17T10:48:25.669Z,26.03
2019-02-17T10:53:30.074Z,25.00
2019-02-17T10:58:34.483Z,25.30
2019-02-17T11:03:40.661Z,24.47
2019-02-17T11:08:45.072Z,24.57
2019-02-17T11:13:49.507Z,23.97
2019-02-17T11:18:53.863Z,24.87
2019-02-17T11:23:58.226Z,24.30
2019-02-17T11:29:02.634Z,23.63
2019-02-17T11:34:07.075Z,22.60
2019-02-17T11:39:13.104Z,23.00
2019-02-17T11:44:17.501Z,20.17
2019-02-17T11:49:22.700Z,19.43
2019-02-17T11:54:27.062Z,18.50
2019-02-17T11:59:31.487Z,20.03
2019-02-17T12:04:36.192Z,19.40
2019-02-17T12:09:40.566Z,19.03
2019-02-17T12:14:44.953Z,17.70
2019-02-17T12:19:49.332Z,18.90
2019-02-17T12:24:55.320Z,17.43
2019-02-17T12:30:00.954Z,18.20
2019-02-17T12:35:06.964Z,16.90
2019-02-17T12:40:11.688Z,16.23
2019-02-17T12:45:18.267Z,15.87
2019-02-17T12:50:22.272Z,15.07
2019-02-17T12:55:26.674Z,14.90
2019-02-17T13:00:31.120Z,15.90
2019-02-17T13:05:35.541Z,16.97
2019-02-17T13:10:39.973Z,16.67
2019-02-17T13:15:44.493Z,16.42
2019-02-17T13:20:48.850Z,15.00
2019-02-17T13:25:53.241Z,16.23
2019-02-17T13:30:57.604Z,16.33
2019-02-17T13:36:01.956Z,16.47
2019-02-17T13:41:06.365Z,14.43
2019-02-17T13:46:10.750Z,16.10
2019-02-17T13:51:15.171Z,14.67
2019-02-17T13:56:19.557Z,14.13
2019-02-17T14:01:23.932Z,14.60
2019-02-17T14:06:28.318Z,14.90
2019-02-17T14:11:32.700Z,16.13
2019-02-17T14:16:37.067Z,14.33
2019-02-17T14:21:41.434Z,14.93
2019-02-17T14:26:45.792Z,16.13
2019-02-17T14:31:50.176Z,16.27
2019-02-17T14:36:54.548Z,16.53
2019-02-17T14:41:59.065Z,17.47
2019-02-17T14:47:03.581Z,17.10
2019-02-17T14:52:07.995Z,16.93
2019-02-17T14:57:12.324Z,17.30
2019-02-17T15:02:16.729Z,17.90
2019-02-17T15:07:21.144Z,17.03
2019-02-17T15:12:25.570Z,17.57
2019-02-17T15:17:29.940Z,17.60
2019-02-17T15:22:34.300Z,18.00
2019-02-17T15:27:38.677Z,17.00
2019-02-17T15:32:43.183Z,17.33
2019-02-17T15:37:47.565Z,17.73
2019-02-17T15:42:52.124Z,18.00
2019-02-17T15:47:56.499Z,18.40
2019-02-17T15:53:00.938Z,17.20
2019-02-17T15:58:05.314Z,17.17
2019-02-17T16:03:09.693Z,17.87
2019-02-17T16:08:14.057Z,17.23
2019-02-17T16:13:18.451Z,17.87
2019-02-17T16:18:23.873Z,17.87
2019-02-17T16:23:28.285Z,17.13
2019-02-17T16:28:32.750Z,19.03
2019-02-17T16:33:37.146Z,18.20
2019-02-17T16:38:41.543Z,19.80
2019-02-17T16:43:45.902Z,19.30
2019-02-17T16:48:50.450Z,19.93
2019-02-17T16:53:54.929Z,20.67
2019-02-17T16:58:59.402Z,21.83
2019-02-17T17:04:03.824Z,21.57
2019-02-17T17:09:08.760Z,23.37
2019-02-17T17:14:13.507Z,23.77
2019-02-17T17:19:17.963Z,23.40
2019-02-17T17:24:22.477Z,24.27
2019-02-17T17:29:26.866Z,25.43
2019-02-17T17:34:31.225Z,25.70
2019-02-17T17:39:35.589Z,27.03
2019-02-17T17:44:40.017Z,26.50
2019-02-17T17:49:44.396Z,27.67
2019-02-17T17:54:48.761Z,27.93
2019-02-17T17:59:53.128Z,28.13
2019-02-17T18:05:08.692Z,28.67
2019-02-17T18:10:16.759Z,28.53
2019-02-17T18:15:21.478Z,28.90
2019-02-17T18:20:25.865Z,29.27
2019-02-17T18:25:30.303Z,27.93
2019-02-17T18:30:34.676Z,28.10
2019-02-17T18:35:39.119Z,30.00
2019-02-17T18:40:46.202Z,29.77
2019-02-17T18:45:49.711Z,30.53
2019-02-17T18:50:59.148Z,31.03
2019-02-17T18:56:00.188Z,29.97
2019-02-17T19:01:04.559Z,29.93
2019-02-17T19:06:08.932Z,29.93
2019-02-17T19:11:13.320Z,29.87
2019-02-17T19:16:17.702Z,31.20
2019-02-17T19:21:22.054Z,29.73
2019-02-17T19:26:26.519Z,28.77
2019-02-17T19:31:30.878Z,29.20
2019-02-17T19:36:35.283Z,28.17
2019-02-17T19:41:39.673Z,28.40
2019-02-17T19:46:44.894Z,29.47
2019-02-17T19:51:49.749Z,27.87
2019-02-17T19:56:54.143Z,28.50
2019-02-17T20:02:02.728Z,27.93
2019-02-17T20:07:07.284Z,28.23
2019-02-17T20:12:11.666Z,26.83
2019-02-17T20:17:16.177Z,28.67
2019-02-17T20:22:22.107Z,26.80
2019-02-17T20:27:26.695Z,26.83
2019-02-17T20:32:31.145Z,28.10
2019-02-17T20:37:35.530Z,27.70
2019-02-17T20:42:39.898Z,28.87
2019-02-17T20:47:44.339Z,28.33
2019-02-17T20:52:48.757Z,27.00
2019-02-17T20:57:53.238Z,27.33
2019-02-17T21:02:57.660Z,27.20
2019-02-17T21:08:02.036Z,25.93
2019-02-17T21:13:07.377Z,27.60
2019-02-17T21:18:16.143Z,26.93
2019-02-17T21:23:20.794Z,27.17
2019-02-17T21:28:33.030Z,27.17
2019-02-17T21:33:37.446Z,27.37
2019-02-17T21:38:41.782Z,27.20
2019-02-17T21:43:47.209Z,26.97
2019-02-17T21:48:51.663Z,27.90
2019-02-17T21:53:56.133Z,28.43
2019-02-17T21:59:00.539Z,28.47
2019-02-17T22:04:05.008Z,27.87
2019-02-17T22:09:09.519Z,27.30
2019-02-17T22:14:14.593Z,27.43
2019-02-17T22:19:19.756Z,28.25
2019-02-17T22:24:24.213Z,26.63
2019-02-17T22:29:28.566Z,26.03
2019-02-17T22:34:32.993Z,27.03
2019-02-17T22:39:37.346Z,25.53
2019-02-17T22:44:41.742Z,24.37
2019-02-17T22:49:46.123Z,24.80
2019-02-17T22:54:52.182Z,24.97
2019-02-17T22:59:56.544Z,25.40
2019-02-17T23:05:00.899Z,25.10
2019-02-17T23:10:08.551Z,25.37
2019-02-17T23:15:12.994Z,25.30
2019-02-17T23:20:17.529Z,26.00
2019-02-17T23:25:22.091Z,26.13
2019-02-17T23:30:26.524Z,25.40
2019-02-17T23:35:30.900Z,25.63
2019-02-17T23:40:35.273Z,26.60
2019-02-17T23:45:39.646Z,25.90
2019-02-17T23:50:44.011Z,26.63
2019-02-17T23:55:48.399Z,26.03
